Time;durP1;ratioP1;P1;durP2;ratioP2;P2;SDS_P1;SDS_P2;PMS_P1;PMS_P2;Temp;Humidity;BMP_temperature;BMP_pressure;BME280_temperature;BME280_humidity;BME280_pressure;Samples;Min_cycle;Max_cycle;Signal;HPM_P1;HPM_P2
2021/09/11 00:01:58;;;;;;;;;;;;;;;18.31;59.73;101501.42;1713428;83;20252;-71
2021/09/11 00:04:30;;;;;;;;;;;;;;;18.33;59.15;101503.92;1724071;83;20228;-73
2021/09/11 00:07:03;;;;;;;;;;;;;;;18.33;58.98;101496.89;1725186;83;20584;-75
2021/09/11 00:09:35;;;;;;;;;;;;;;;18.32;58.67;101491.85;1725484;83;20545;-74
2021/09/11 00:12:07;;;;;;;;;;;;;;;18.33;58.56;101493.53;1725290;83;20385;-71
2021/09/11 00:14:40;;;;;;;;;;;;;;;18.32;58.42;101494.66;1725383;83;20188;-74
2021/09/11 00:17:11;;;;;;;;;;;;;;;18.33;58.15;101495.48;1727679;83;20255;-70
2021/09/11 00:19:43;;;;;;;;;;;;;;;18.33;57.84;101499.16;1732817;83;20230;-73
2021/09/11 00:22:15;;;;;;;;;;;;;;;18.33;57.54;101489.30;1732849;83;20572;-74
2021/09/11 00:24:47;;;;;;;;;;;;;;;18.37;57.27;101489.56;1732717;83;20317;-72
2021/09/11 00:27:18;;;;;;;;;;;;;;;18.39;57.12;101485.88;1732786;83;20199;-72
2021/09/11 00:29:49;;;;;;;;;;;;;;;18.41;57.05;101483.63;1732680;83;20567;-73
2021/09/11 00:32:21;;;;;;;;;;;;;;;18.41;57.00;101486.45;1732745;83;20191;-73
2021/09/11 00:34:53;;;;;;;;;;;;;;;18.41;57.09;101490.08;1732834;82;20262;-74
2021/09/11 00:37:25;;;;;;;;;;;;;;;18.42;57.19;101488.13;1731199;81;20231;-70
2021/09/11 00:39:57;;;;;;;;;;;;;;;18.40;57.17;101483.36;1723658;82;20191;-73
2021/09/11 00:42:28;;;;;;;;;;;;;;;18.39;57.17;101485.33;1732822;83;20544;-79
2021/09/11 00:44:59;;;;;;;;;;;;;;;18.38;57.25;101489.83;1732863;83;20195;-80
2021/09/11 00:47:31;;;;;;;;;;;;;;;18.35;57.34;101483.40;1732855;82;20572;-76
2021/09/11 00:50:04;;;;;;;;;;;;;;;18.33;57.43;101480.02;1732925;83;20175;-77
2021/09/11 00:52:36;;;;;;;;;;;;;;;18.30;57.37;101484.80;1732869;83;20294;-76
2021/09/11 00:55:10;;;;;;;;;;;;;;;18.26;57.50;101478.92;1732817;83;20591;-78
2021/09/11 00:57:46;;;;;;;;;;;;;;;18.23;57.58;101480.90;1732748;82;20219;-78
2021/09/11 01:00:18;;;;;;;;;;;;;;;18.20;57.68;101482.05;1732660;83;20317;-77
2021/09/11 01:02:49;;;;;;;;;;;;;;;18.17;57.70;101486.28;1732785;83;20241;-76
2021/09/11 01:05:22;;;;;;;;;;;;;;;18.14;57.81;101480.41;1732720;83;20322;-77
2021/09/11 01:07:54;;;;;;;;;;;;;;;18.11;57.75;101484.63;1732852;83;20286;-75
2021/09/11 01:10:28;;;;;;;;;;;;;;;18.08;57.72;101483.83;1727849;83;20274;-73
2021/09/11 01:13:00;;;;;;;;;;;;;;;18.07;57.72;101484.11;1716600;83;20232;-73
2021/09/11 01:15:34;;;;;;;;;;;;;;;18.04;57.76;101481.90;1707989;81;20567;-74
2021/09/11 01:18:07;;;;;;;;;;;;;;;18.01;57.81;101482.46;1712455;83;20263;-73
2021/09/11 01:20:39;;;;;;;;;;;;;;;17.98;57.83;101484.46;1724951;83;20223;-74
2021/09/11 01:23:11;;;;;;;;;;;;;;;17.96;57.83;101486.70;1698696;83;20188;-74
2021/09/11 01:25:44;;;;;;;;;;;;;;;17.94;57.86;101484.20;1696002;84;20203;-75
2021/09/11 01:28:15;;;;;;;;;;;;;;;17.91;58.01;101485.35;1696186;85;20252;-72
2021/09/11 01:30:47;;;;;;;;;;;;;;;17.88;58.11;101494.34;1720366;83;20280;-72
2021/09/11 01:33:18;;;;;;;;;;;;;;;17.84;58.19;101482.84;1724977;83;20713;-74
2021/09/11 01:35:52;;;;;;;;;;;;;;;17.82;58.29;101485.66;1704875;83;20597;-72
2021/09/11 01:38:25;;;;;;;;;;;;;;;17.77;58.35;101487.09;1696338;84;20184;-79
2021/09/11 01:40:58;;;;;;;;;;;;;;;17.75;58.52;101486.55;1703684;82;20188;-80
2021/09/11 01:43:30;;;;;;;;;;;;;;;17.71;58.42;101488.24;1725109;83;20255;-75
2021/09/11 01:46:01;;;;;;;;;;;;;;;17.68;58.40;101489.66;1696196;85;20182;-76
2021/09/11 01:48:34;;;;;;;;;;;;;;;17.68;58.31;101484.62;1696276;85;20257;-80
2021/09/11 01:51:07;;;;;;;;;;;;;;;17.66;58.35;101482.64;1700462;82;20289;-76
2021/09/11 01:53:40;;;;;;;;;;;;;;;17.64;58.38;101486.31;1700894;84;20194;-76
2021/09/11 01:56:12;;;;;;;;;;;;;;;17.63;58.29;101486.04;1696056;85;20265;-79
2021/09/11 01:58:44;;;;;;;;;;;;;;;17.62;58.25;101485.77;1696281;85;20662;-77
2021/09/11 02:01:15;;;;;;;;;;;;;;;17.60;58.18;101482.38;1700069;82;20228;-77
2021/09/11 02:03:47;;;;;;;;;;;;;;;17.59;58.14;101483.52;1725265;82;20255;-76
2021/09/11 02:06:21;;;;;;;;;;;;;;;17.58;58.10;101484.66;1724912;82;20272;-78
2021/09/11 02:08:52;;;;;;;;;;;;;;;17.57;58.10;101490.00;1725154;83;20628;-83
2021/09/11 02:11:24;;;;;;;;;;;;;;;17.55;58.09;101483.25;1725102;83;20255;-80
2021/09/11 02:13:57;;;;;;;;;;;;;;;17.56;58.13;101482.13;1725120;83;20290;-74
2021/09/11 02:16:29;;;;;;;;;;;;;;;17.55;58.15;101475.41;1735632;82;20567;-78
2021/09/11 02:19:02;;;;;;;;;;;;;;;17.54;58.21;101487.20;1753786;82;20193;-79
2021/09/11 02:21:34;;;;;;;;;;;;;;;17.54;58.25;101487.20;1749553;82;20289;-79
2021/09/11 02:24:06;;;;;;;;;;;;;;;17.52;58.24;101482.99;1749408;82;20281;-82
2021/09/11 02:26:38;;;;;;;;;;;;;;;17.52;58.22;101485.80;1749454;82;20253;-79
2021/09/11 02:29:09;;;;;;;;;;;;;;;17.52;58.29;101480.19;1749543;82;20285;-78
2021/09/11 02:31:42;;;;;;;;;;;;;;;17.51;58.33;101482.17;1749321;82;20182;-76
2021/09/11 02:34:14;;;;;;;;;;;;;;;17.49;58.39;101482.18;1749497;81;20284;-81
2021/09/11 02:36:45;;;;;;;;;;;;;;;17.48;58.53;101488.89;1749350;82;20250;-76
2021/09/11 02:39:17;;;;;;;;;;;;;;;17.47;58.57;101490.88;1718774;80;20213;-79
2021/09/11 02:41:48;;;;;;;;;;;;;;;17.47;58.63;101489.48;1684291;84;20265;-78
2021/09/11 02:44:20;;;;;;;;;;;;;;;17.47;58.81;101481.60;1699304;84;20183;-77
2021/09/11 02:46:52;;;;;;;;;;;;;;;17.46;58.91;101492.56;1681906;84;20224;-76
2021/09/11 02:49:23;;;;;;;;;;;;;;;17.44;59.07;101485.82;1681977;85;20698;-78
2021/09/11 02:51:57;;;;;;;;;;;;;;;17.43;59.07;101485.55;1681927;85;20582;-78
2021/09/11 02:54:29;;;;;;;;;;;;;;;17.42;59.21;101484.42;1682011;85;20241;-79
2021/09/11 02:57:02;;;;;;;;;;;;;;;17.40;59.47;101483.33;1682235;84;20256;-83
2021/09/11 02:59:34;;;;;;;;;;;;;;;17.38;59.65;101481.34;1707677;84;20271;-76
2021/09/11 03:02:06;;;;;;;;;;;;;;;17.35;59.69;101488.07;1710283;84;20621;-76
2021/09/11 03:04:38;;;;;;;;;;;;;;;17.35;59.79;101488.07;1710366;84;20336;-77
2021/09/11 03:07:10;;;;;;;;;;;;;;;17.36;59.80;101482.73;1710244;84;20196;-77
2021/09/11 03:09:42;;;;;;;;;;;;;;;17.35;59.80;101486.12;1708724;83;20557;-78
2021/09/11 03:12:13;;;;;;;;;;;;;;;17.35;59.84;101487.52;1681931;85;20193;-79
2021/09/11 03:14:45;;;;;;;;;;;;;;;17.36;59.96;101490.60;1702053;84;20196;-77
2021/09/11 03:17:16;;;;;;;;;;;;;;;17.33;60.04;101498.76;1682484;84;20309;-79
2021/09/11 03:19:49;;;;;;;;;;;;;;;17.31;60.13;101498.21;1702277;84;20201;-78
2021/09/11 03:22:21;;;;;;;;;;;;;;;17.30;60.14;101498.77;1710401;84;20185;-78
2021/09/11 03:24:57;;;;;;;;;;;;;;;17.30;60.15;101504.37;1706299;84;20323;-78
2021/09/11 03:27:29;;;;;;;;;;;;;;;17.30;60.16;101499.31;1681849;84;20252;-78
2021/09/11 03:30:00;;;;;;;;;;;;;;;17.30;60.21;101499.31;1681887;85;20598;-78
2021/09/11 03:32:33;;;;;;;;;;;;;;;17.31;60.26;101502.42;1682050;84;20185;-78
2021/09/11 03:35:07;;;;;;;;;;;;;;;17.29;60.38;101499.89;1681848;84;20225;-77
2021/09/11 03:37:40;;;;;;;;;;;;;;;17.30;60.57;101499.31;1695816;84;20283;-77
2021/09/11 03:40:13;;;;;;;;;;;;;;;17.32;60.59;101499.89;1706029;84;20192;-77
2021/09/11 03:42:46;;;;;;;;;;;;;;;17.33;60.59;101498.20;1703897;84;20652;-79
2021/09/11 03:45:18;;;;;;;;;;;;;;;17.39;60.53;101497.65;1704083;84;20545;-77
2021/09/11 03:47:50;;;;;;;;;;;;;;;17.44;60.39;101499.86;1703984;84;20185;-76
2021/09/11 03:50:23;;;;;;;;;;;;;;;17.50;60.29;101504.91;1703890;84;20241;-75
2021/09/11 03:55:47;;;;;;;;;;;;;;;17.55;60.29;101502.09;1709926;83;20218;-77
2021/09/11 03:58:20;;;;;;;;;;;;;;;17.56;60.32;101498.16;1723674;83;20251;-77
2021/09/11 04:00:52;;;;;;;;;;;;;;;17.55;60.34;101497.88;1710027;84;20213;-75
2021/09/11 04:03:25;;;;;;;;;;;;;;;17.55;60.40;101502.09;1710209;84;20196;-80
2021/09/11 04:05:57;;;;;;;;;;;;;;;17.55;60.43;101498.70;1723149;83;20297;-78
2021/09/11 04:08:32;;;;;;;;;;;;;;;17.58;60.44;101507.98;1729641;83;20249;-78
2021/09/11 04:11:05;;;;;;;;;;;;;;;17.61;60.39;101505.98;1730092;82;20185;-79
2021/09/11 04:13:37;;;;;;;;;;;;;;;17.64;60.37;101504.58;1720866;82;20192;-77
2021/09/11 04:16:09;;;;;;;;;;;;;;;17.66;60.38;101506.52;1700770;84;20245;-80
2021/09/11 04:18:41;;;;;;;;;;;;;;;17.69;60.38;101509.59;1707615;83;20569;-77
2021/09/11 04:21:13;;;;;;;;;;;;;;;17.72;60.42;101505.37;1716710;82;20264;-78
2021/09/11 04:23:45;;;;;;;;;;;;;;;17.74;60.45;101505.95;1715957;83;20177;-76
2021/09/11 04:26:17;;;;;;;;;;;;;;;17.79;60.46;101506.75;1715789;83;20317;-77
2021/09/11 04:28:49;;;;;;;;;;;;;;;17.85;60.35;101504.77;1708877;83;20296;-78
2021/09/11 04:31:21;;;;;;;;;;;;;;;17.92;60.36;101506.70;1709261;84;20698;-80
2021/09/11 04:33:53;;;;;;;;;;;;;;;17.96;60.15;101505.83;1709249;84;20193;-77
2021/09/11 04:36:25;;;;;;;;;;;;;;;18.03;60.03;101499.86;1711255;83;20284;-78
2021/09/11 04:38:57;;;;;;;;;;;;;;;18.10;59.89;101506.03;1681158;85;20548;-78
2021/09/11 04:41:30;;;;;;;;;;;;;;;18.16;59.80;101511.31;1680800;85;20222;-80
2021/09/11 04:44:01;;;;;;;;;;;;;;;18.23;59.65;101502.58;1681006;85;20194;-80
2021/09/11 04:46:34;;;;;;;;;;;;;;;18.32;59.52;101502.25;1698482;83;20565;-78
2021/09/11 04:49:14;;;;;;;;;;;;;;;18.40;59.48;101503.05;1699984;84;20176;-82
2021/09/11 04:51:48;;;;;;;;;;;;;;;18.49;59.32;101500.73;1703722;83;20295;-81
2021/09/11 04:54:20;;;;;;;;;;;;;;;18.59;59.16;101501.22;1698633;84;20184;-81
2021/09/11 04:56:52;;;;;;;;;;;;;;;18.69;58.85;101499.70;1697010;84;20188;-81
2021/09/11 04:59:25;;;;;;;;;;;;;;;18.79;58.71;101498.22;1696941;84;20553;-82
2021/09/11 05:01:57;;;;;;;;;;;;;;;18.98;58.60;101490.72;1697110;83;20251;-80
2021/09/11 05:04:29;;;;;;;;;;;;;;;19.32;58.31;101499.97;1698848;83;20204;-79
2021/09/11 05:07:01;;;;;;;;;;;;;;;19.75;57.54;101503.93;1702252;82;20168;-84
2021/09/11 05:09:33;;;;;;;;;;;;;;;20.20;56.29;101499.13;1698506;84;20212;-82
2021/09/11 05:12:06;;;;;;;;;;;;;;;20.66;54.90;101497.83;1700843;83;20568;-83
2021/09/11 05:14:38;;;;;;;;;;;;;;;21.10;53.79;101489.13;1719653;83;20525;-74
2021/09/11 05:17:09;;;;;;;;;;;;;;;21.52;52.75;101488.87;1696928;84;20178;-73
2021/09/11 05:19:41;;;;;;;;;;;;;;;21.88;52.03;101485.59;1718984;83;20193;-72
2021/09/11 05:22:15;;;;;;;;;;;;;;;22.22;50.53;101482.27;1725392;83;20246;-72
2021/09/11 05:24:47;;;;;;;;;;;;;;;22.50;49.37;101482.48;1725139;83;20569;-73
2021/09/11 05:27:18;;;;;;;;;;;;;;;22.72;48.79;101481.91;1725842;83;20215;-72
2021/09/11 05:29:51;;;;;;;;;;;;;;;22.96;48.74;101482.41;1725098;83;20184;-72
2021/09/11 05:32:22;;;;;;;;;;;;;;;23.22;47.45;101482.00;1725854;83;20182;-74
2021/09/11 05:34:54;;;;;;;;;;;;;;;23.43;46.26;101486.53;1725770;83;20214;-72
2021/09/11 05:37:26;;;;;;;;;;;;;;;23.55;46.38;101486.18;1706489;80;20214;-75
2021/09/11 05:39:59;;;;;;;;;;;;;;;23.68;46.32;101481.54;1670802;86;20180;-75
2021/09/11 05:42:30;;;;;;;;;;;;;;;23.82;46.20;101477.98;1674171;85;20764;-74
2021/09/11 05:45:05;;;;;;;;;;;;;;;24.00;45.04;101471.22;1672107;85;20573;-70
2021/09/11 05:47:36;;;;;;;;;;;;;;;24.09;44.54;101483.44;1662479;85;20187;-73
2021/09/11 05:50:10;;;;;;;;;;;;;;;24.12;44.82;101482.19;1652881;86;20229;-73
2021/09/11 05:52:42;;;;;;;;;;;;;;;24.18;44.66;101481.44;1663049;86;20191;-72
2021/09/11 05:55:15;;;;;;;;;;;;;;;24.29;44.63;101484.20;1645523;87;20284;-78
2021/09/11 05:57:46;;;;;;;;;;;;;;;24.44;44.37;101486.58;1667098;86;20304;-78
2021/09/11 06:00:18;;;;;;;;;;;;;;;24.61;43.00;101483.73;1664475;86;20611;-72
2021/09/11 06:02:49;;;;;;;;;;;;;;;24.64;43.09;101482.48;1674799;85;20260;-79
2021/09/11 06:05:22;;;;;;;;;;;;;;;24.75;43.84;101477.31;1672034;85;20234;-75
2021/09/11 06:07:54;;;;;;;;;;;;;;;24.93;43.86;101476.12;1669974;85;20597;-71
2021/09/11 06:10:26;;;;;;;;;;;;;;;25.09;43.33;101477.23;1668606;85;20545;-88
2021/09/11 06:12:59;;;;;;;;;;;;;;;25.20;43.34;101478.55;1672520;85;20184;-83
2021/09/11 06:15:32;;;;;;;;;;;;;;;25.35;42.29;101479.47;1673584;85;20208;-86
2021/09/11 06:18:11;;;;;;;;;;;;;;;25.47;42.25;101471.88;1680157;85;20550;-84
2021/09/11 06:20:48;;;;;;;;;;;;;;;25.66;42.38;101483.67;1670756;85;20275;-78
2021/09/11 06:23:22;;;;;;;;;;;;;;;25.89;41.43;101485.64;1676431;85;20739;-82
2021/09/11 06:25:54;;;;;;;;;;;;;;;26.06;41.97;101483.58;1672911;84;20196;-79
2021/09/11 06:28:26;;;;;;;;;;;;;;;26.26;41.52;101484.76;1675591;84;20635;-75
2021/09/11 06:30:58;;;;;;;;;;;;;;;26.41;40.58;101481.31;1678577;85;20241;-76
2021/09/11 06:33:36;;;;;;;;;;;;;;;26.48;40.76;101474.45;1647113;85;20217;-78
2021/09/11 06:36:10;;;;;;;;;;;;;;;26.49;40.78;101482.67;1675623;85;20202;-73
2021/09/11 06:38:41;;;;;;;;;;;;;;;26.45;40.76;101483.72;1680783;85;20606;-77
2021/09/11 06:41:17;;;;;;;;;;;;;;;26.39;40.65;101485.92;1678260;85;21142;-76
2021/09/11 06:43:49;;;;;;;;;;;;;;;26.40;41.29;101484.73;1679533;85;20185;-77
2021/09/11 06:46:21;;;;;;;;;;;;;;;26.46;41.20;101480.50;1681239;85;20291;-76
2021/09/11 06:48:52;;;;;;;;;;;;;;;26.53;41.30;101479.95;1653078;87;20538;-76
2021/09/11 06:51:24;;;;;;;;;;;;;;;26.54;40.83;101478.22;1682046;85;20220;-76
2021/09/11 06:53:57;;;;;;;;;;;;;;;26.48;40.85;101485.86;1653149;85;20193;-77
2021/09/11 06:56:28;;;;;;;;;;;;;;;26.45;41.25;101493.70;1682135;84;20295;-79
2021/09/11 06:59:00;;;;;;;;;;;;;;;26.40;40.45;101487.59;1653224;87;20626;-81
2021/09/11 07:01:34;;;;;;;;;;;;;;;26.28;41.06;101485.27;1682150;85;20304;-77
2021/09/11 07:04:08;;;;;;;;;;;;;;;26.20;41.54;101484.75;1653164;87;20228;-76
2021/09/11 07:06:40;;;;;;;;;;;;;;;26.14;41.65;101492.64;1682511;85;20181;-79
2021/09/11 07:09:12;;;;;;;;;;;;;;;26.03;42.11;101496.25;1653251;87;20233;-75
2021/09/11 07:11:44;;;;;;;;;;;;;;;25.97;42.78;101496.20;1682010;84;20181;-75
2021/09/11 07:14:17;;;;;;;;;;;;;;;25.98;43.88;101495.02;1653225;87;20537;-76
2021/09/11 07:16:51;;;;;;;;;;;;;;;26.00;43.25;101496.34;1682245;85;20220;-76
2021/09/11 07:19:30;;;;;;;;;;;;;;;26.05;43.66;101499.58;1653285;87;20201;-77
2021/09/11 07:22:03;;;;;;;;;;;;;;;26.08;42.68;101503.17;1682068;85;20237;-74
2021/09/11 07:24:36;;;;;;;;;;;;;;;26.13;43.13;101500.95;1634752;87;20545;-76
2021/09/11 07:27:07;;;;;;;;;;;;;;;26.16;43.60;101500.85;1682244;85;20536;-76
2021/09/11 07:29:39;;;;;;;;;;;;;;;26.19;43.78;101511.54;1653329;85;20229;-75
2021/09/11 07:32:12;;;;;;;;;;;;;;;26.19;43.48;101507.27;1682002;84;20225;-78
2021/09/11 07:34:45;;;;;;;;;;;;;;;26.18;43.30;101501.33;1653194;87;20229;-77
2021/09/11 07:37:17;;;;;;;;;;;;;;;26.15;43.05;101496.34;1682165;85;20259;-77
2021/09/11 07:39:53;;;;;;;;;;;;;;;26.11;44.26;101493.35;1636421;85;20218;-77
2021/09/11 07:42:26;;;;;;;;;;;;;;;26.06;43.24;101495.55;1622795;88;20230;-77
2021/09/11 07:44:59;;;;;;;;;;;;;;;26.01;43.19;101491.47;1640421;87;20197;-76
2021/09/11 07:47:32;;;;;;;;;;;;;;;25.94;43.05;101486.91;1621565;88;20190;-76
2021/09/11 07:50:06;;;;;;;;;;;;;;;25.88;43.49;101496.79;1649122;87;20291;-77
2021/09/11 07:52:39;;;;;;;;;;;;;;;25.82;43.61;101488.20;1649055;87;20223;-76
2021/09/11 07:55:11;;;;;;;;;;;;;;;25.73;43.62;101489.66;1649141;87;20545;-79
2021/09/11 07:57:42;;;;;;;;;;;;;;;25.61;43.64;101487.31;1649159;86;20238;-78
2021/09/11 08:00:23;;;;;;;;;;;;;;;25.53;43.61;101489.62;1649229;87;20183;-76
2021/09/11 08:02:51;;;;;;;;;;;;;;;25.50;43.84;101490.28;1649158;86;20247;-76
2021/09/11 08:05:24;;;;;;;;;;;;;;;25.54;44.39;101494.94;1649482;87;20556;-76
2021/09/11 08:07:56;;;;;;;;;;;;;;;25.61;44.00;101486.70;1649245;86;20195;-75
2021/09/11 08:10:27;;;;;;;;;;;;;;;25.69;43.12;101479.31;1649191;87;20251;-76
2021/09/11 08:12:59;;;;;;;;;;;;;;;25.77;43.30;101475.58;1649272;86;20183;-76
2021/09/11 08:15:30;;;;;;;;;;;;;;;25.89;43.92;101479.95;1649258;87;20272;-77
2021/09/11 08:18:03;;;;;;;;;;;;;;;26.00;43.78;101474.98;1650892;87;20187;-76
2021/09/11 08:20:35;;;;;;;;;;;;;;;26.08;43.52;101468.39;1653145;86;20203;-76
2021/09/11 08:23:07;;;;;;;;;;;;;;;26.12;43.34;101468.53;1649344;86;20187;-77
2021/09/11 08:25:39;;;;;;;;;;;;;;;26.17;42.94;101463.48;1649235;87;20250;-76
2021/09/11 08:28:10;;;;;;;;;;;;;;;26.25;42.99;101456.03;1649221;86;20195;-77
2021/09/11 08:30:42;;;;;;;;;;;;;;;26.33;41.59;101446.61;1649139;87;20203;-79
2021/09/11 08:33:15;;;;;;;;;;;;;;;26.40;41.57;101443.42;1649165;86;20200;-76
2021/09/11 08:35:46;;;;;;;;;;;;;;;26.44;41.94;101435.01;1649354;87;20238;-78
2021/09/11 08:38:19;;;;;;;;;;;;;;;26.49;42.29;101434.80;1640098;87;20196;-77
2021/09/11 08:40:51;;;;;;;;;;;;;;;26.54;40.80;101433.20;1650439;85;20227;-76
2021/09/11 08:43:22;;;;;;;;;;;;;;;26.55;39.78;101434.28;1651940;87;20271;-77
2021/09/11 08:45:54;;;;;;;;;;;;;;;26.59;39.78;101426.68;1651807;87;20547;-78
2021/09/11 08:48:25;;;;;;;;;;;;;;;26.65;40.42;101421.61;1651965;86;20232;-77
2021/09/11 08:50:57;;;;;;;;;;;;;;;26.69;39.33;101421.17;1650563;87;20247;-74
2021/09/11 08:53:32;;;;;;;;;;;;;;;26.74;39.58;101418.92;1652057;86;20219;-73
2021/09/11 08:56:04;;;;;;;;;;;;;;;26.80;38.90;101414.66;1651942;87;20191;-76
2021/09/11 08:58:36;;;;;;;;;;;;;;;26.84;39.17;101414.21;1652213;87;20250;-83
2021/09/11 09:01:08;;;;;;;;;;;;;;;26.90;39.28;101414.80;1652167;87;20331;-79
2021/09/11 09:03:58;;;;;;;;;;;;;;;26.96;38.72;101410.55;1664676;85;20404;-79
2021/09/11 09:06:31;;;;;;;;;;;;;;;27.03;38.80;101409.37;1717593;83;20219;-71
2021/09/11 09:09:13;;;;;;;;;;;;;;;27.08;36.75;101405.10;1729084;83;20251;-74
2021/09/11 09:11:45;;;;;;;;;;;;;;;27.09;36.33;101398.81;1729033;83;20547;-72
2021/09/11 09:14:21;;;;;;;;;;;;;;;27.12;36.40;101395.86;1729255;83;20176;-74
2021/09/11 09:16:53;;;;;;;;;;;;;;;27.18;36.40;101394.47;1729045;83;20211;-74
2021/09/11 09:19:26;;;;;;;;;;;;;;;27.26;36.20;101380.67;1728972;83;20200;-75
2021/09/11 09:22:01;;;;;;;;;;;;;;;27.33;36.47;101382.58;1729039;83;20172;-76
2021/09/11 09:24:40;;;;;;;;;;;;;;;27.40;36.07;101379.95;1728759;83;20191;-76
2021/09/11 09:27:11;;;;;;;;;;;;;;;27.52;35.97;101382.00;1728885;83;20188;-77
2021/09/11 09:29:44;;;;;;;;;;;;;;;27.61;34.96;101369.84;1729070;83;20291;-77
2021/09/11 09:32:16;;;;;;;;;;;;;;;27.67;34.63;101371.27;1728848;83;20274;-76
2021/09/11 09:34:48;;;;;;;;;;;;;;;27.71;33.91;101379.36;1728836;83;20219;-77
2021/09/11 09:37:20;;;;;;;;;;;;;;;27.71;34.06;101381.60;1724417;83;20303;-77
2021/09/11 09:39:54;;;;;;;;;;;;;;;27.71;34.31;101381.60;1728640;83;20362;-77
2021/09/11 09:42:25;;;;;;;;;;;;;;;27.69;33.99;101374.62;1729075;83;20181;-76
2021/09/11 09:44:57;;;;;;;;;;;;;;;27.65;34.25;101383.66;1724252;83;20255;-77
2021/09/11 09:47:29;;;;;;;;;;;;;;;27.62;33.45;101378.64;1729140;83;20192;-76
2021/09/11 09:50:15;;;;;;;;;;;;;;;27.62;33.79;101375.20;1728994;83;20211;-77
2021/09/11 09:52:54;;;;;;;;;;;;;;;27.66;34.00;101378.17;1729045;83;20244;-77
2021/09/11 09:55:26;;;;;;;;;;;;;;;27.72;33.38;101371.02;1729036;83;20230;-77
2021/09/11 09:57:57;;;;;;;;;;;;;;;27.79;33.48;101373.56;1719328;83;20241;-77
2021/09/11 10:00:29;;;;;;;;;;;;;;;27.88;33.85;101367.09;1716847;83;20199;-78
2021/09/11 10:03:01;;;;;;;;;;;;;;;27.95;33.21;101369.36;1735652;82;20539;-76
2021/09/11 10:05:33;;;;;;;;;;;;;;;27.98;32.83;101370.89;1722498;82;20252;-77
2021/09/11 10:08:09;;;;;;;;;;;;;;;27.96;33.08;101376.73;1705547;79;20616;31
2021/09/11 10:10:44;;;;;;;;;;;;;;;27.98;33.19;101370.05;1591333;90;20202;-75
2021/09/11 10:13:27;;;;;;;;;;;;;;;27.93;33.01;101378.28;1591205;90;20608;-76
2021/09/11 10:16:03;;;;;;;;;;;;;;;27.89;33.04;101375.89;1588565;90;20311;-74
2021/09/11 10:18:37;;;;;;;;;;;;;;;27.84;33.18;101376.17;1590656;90;20275;-77
2021/09/11 10:21:23;;;;;;;;;;;;;;;27.77;33.16;101366.53;1603755;89;20277;-75
2021/09/11 10:24:01;;;;;;;;;;;;;;;27.71;33.51;101367.94;1603376;89;20286;-78
2021/09/11 10:26:52;;;;;;;;;;;;;;;27.64;33.27;101355.68;1600315;89;20644;-76
2021/09/11 10:29:37;;;;;;;;;;;;;;;27.62;33.24;101356.64;1609666;89;20185;-77
2021/09/11 10:32:18;;;;;;;;;;;;;;;27.60;33.35;101352.48;1604927;89;20270;-76
2021/09/11 10:35:07;;;;;;;;;;;;;;;27.58;33.33;101354.26;1594297;89;20207;-76
2021/09/11 10:37:44;;;;;;;;;;;;;;;27.56;33.36;101347.23;1592243;89;20239;-74
2021/09/11 10:40:28;;;;;;;;;;;;;;;27.49;33.57;101339.88;1591379;90;20196;-72
2021/09/11 10:43:09;;;;;;;;;;;;;;;27.43;33.63;101342.16;1590697;90;20312;-75
2021/09/11 10:46:02;;;;;;;;;;;;;;;27.40;33.73;101344.89;1592471;89;20652;-75
2021/09/11 10:48:48;;;;;;;;;;;;;;;27.37;32.95;101334.79;1591822;89;20271;-76
2021/09/11 10:51:29;;;;;;;;;;;;;;;27.32;33.20;101339.30;1588440;89;20323;-73
2021/09/11 10:54:09;;;;;;;;;;;;;;;27.28;32.91;101344.28;1595327;89;20193;-78
2021/09/11 10:56:52;;;;;;;;;;;;;;;27.27;32.60;101333.83;1589913;89;20294;-76
2021/09/11 10:59:25;;;;;;;;;;;;;;;27.27;33.27;101333.83;1587795;90;20568;-73
2021/09/11 11:02:24;;;;;;;;;;;;;;;27.28;33.20;101335.72;1595890;89;20295;-73
2021/09/11 11:05:07;;;;;;;;;;;;;;;27.30;33.33;101329.66;1593934;89;20202;-73
2021/09/11 11:07:48;;;;;;;;;;;;;;;27.32;32.97;101331.56;1599425;89;20558;-72
2021/09/11 11:10:22;;;;;;;;;;;;;;;27.33;32.84;101319.80;1613828;89;20209;-72
2021/09/11 11:12:55;;;;;;;;;;;;;;;27.34;32.81;101320.02;1644962;86;20549;-78
2021/09/11 11:15:27;;;;;;;;;;;;;;;27.36;32.42;101313.16;1639660;87;20196;-75
2021/09/11 11:18:01;;;;;;;;;;;;;;;27.34;32.70;101317.17;1639855;87;20200;-75
2021/09/11 11:20:33;;;;;;;;;;;;;;;27.35;32.12;101308.03;1635528;87;20200;-75
2021/09/11 11:23:04;;;;;;;;;;;;;;;27.37;32.14;101304.83;1638497;87;20204;-75
2021/09/11 11:25:39;;;;;;;;;;;;;;;27.38;32.35;101310.77;1632941;86;20192;-75
2021/09/11 11:28:14;;;;;;;;;;;;;;;27.37;32.01;101304.21;1615886;87;20227;-75
2021/09/11 11:30:50;;;;;;;;;;;;;;;27.37;31.98;101299.93;1616470;89;20263;-75
2021/09/11 11:33:21;;;;;;;;;;;;;;;27.38;32.11;101305.05;1615910;89;20568;-79
2021/09/11 11:35:52;;;;;;;;;;;;;;;27.36;31.47;101306.83;1614698;89;20245;-78
2021/09/11 11:38:33;;;;;;;;;;;;;;;27.34;31.53;101302.09;1655900;79;20197;-76
2021/09/11 11:41:13;;;;;;;;;;;;;;;27.36;31.75;101308.27;1715998;82;20215;-77
2021/09/11 11:43:58;;;;;;;;;;;;;;;27.42;31.95;101310.30;1724928;82;20191;-76
2021/09/11 11:46:42;;;;;;;;;;;;;;;27.48;31.63;101311.72;1739900;82;20255;-81
2021/09/11 11:49:41;;;;;;;;;;;;;;;27.47;31.58;101299.45;1729301;82;20196;-82
2021/09/11 11:52:40;;;;;;;;;;;;;;;27.44;31.43;101295.88;1705893;84;20276;-79
2021/09/11 11:55:13;;;;;;;;;;;;;;;27.44;31.23;101295.30;1718577;82;20264;-81
2021/09/11 11:57:45;;;;;;;;;;;;;;;27.45;31.44;101291.24;1736185;82;20198;-76
2021/09/11 12:00:17;;;;;;;;;;;;;;;27.50;31.62;101289.58;1753422;82;20548;-76
2021/09/11 12:02:49;;;;;;;;;;;;;;;27.56;31.68;101292.42;1753544;82;20187;-79
2021/09/11 12:05:26;;;;;;;;;;;;;;;27.59;31.56;101292.30;1727216;82;20247;-80
2021/09/11 12:08:03;;;;;;;;;;;;;;;27.59;31.06;101295.97;1738014;82;20186;-83
2021/09/11 12:10:36;;;;;;;;;;;;;;;27.59;31.00;101300.25;1745152;82;20562;-77
2021/09/11 12:13:10;;;;;;;;;;;;;;;27.57;30.99;101294.69;1732577;81;20248;-75
2021/09/11 12:15:41;;;;;;;;;;;;;;;27.57;31.18;101294.08;1688132;85;20251;-69
2021/09/11 12:18:16;;;;;;;;;;;;;;;27.57;31.21;101295.50;1724015;83;20256;-77
2021/09/11 12:20:52;;;;;;;;;;;;;;;27.60;30.64;101296.81;1691393;85;20205;-75
2021/09/11 12:23:38;;;;;;;;;;;;;;;27.58;30.68;101297.16;1714996;82;20303;-75
2021/09/11 12:26:14;;;;;;;;;;;;;;;27.58;30.80;101288.59;1729555;82;20200;-81
2021/09/11 12:28:50;;;;;;;;;;;;;;;27.59;30.94;101294.54;1687199;85;20297;-75
2021/09/11 12:31:24;;;;;;;;;;;;;;;27.60;31.18;101289.67;1713418;83;20307;-72
2021/09/11 12:34:11;;;;;;;;;;;;;;;27.60;31.01;101293.38;1710729;83;20248;-80
2021/09/11 12:36:45;;;;;;;;;;;;;;;27.56;30.69;101290.98;1677940;85;20248;-74
2021/09/11 12:39:26;;;;;;;;;;;;;;;27.55;30.66;101293.61;1692624;84;20192;-73
2021/09/11 12:42:01;;;;;;;;;;;;;;;27.52;30.47;101291.46;1681644;85;20204;-72
2021/09/11 12:44:33;;;;;;;;;;;;;;;27.48;30.50;101286.03;1693436;85;20299;-73
2021/09/11 12:47:08;;;;;;;;;;;;;;;27.45;30.51;101281.25;1694073;85;20601;-78
2021/09/11 12:49:41;;;;;;;;;;;;;;;27.44;30.59;101280.17;1695087;85;20228;-75
2021/09/11 12:52:12;;;;;;;;;;;;;;;27.44;30.60;101288.16;1695356;85;20236;-75
2021/09/11 12:54:44;;;;;;;;;;;;;;;27.44;30.95;101287.31;1695104;85;20307;-71
2021/09/11 12:57:17;;;;;;;;;;;;;;;27.44;30.72;101292.44;1695174;85;20540;-80
2021/09/11 12:59:49;;;;;;;;;;;;;;;27.43;30.73;101294.83;1695334;85;20325;-73
2021/09/11 13:02:22;;;;;;;;;;;;;;;27.39;30.89;101284.73;1690190;85;20536;-78
2021/09/11 13:04:57;;;;;;;;;;;;;;;27.37;31.31;101280.57;1680923;85;20235;-81
2021/09/11 13:07:29;;;;;;;;;;;;;;;27.34;31.15;101276.41;1712142;83;20259;-82
2021/09/11 13:10:03;;;;;;;;;;;;;;;27.30;31.60;101275.45;1686215;83;20193;-79
2021/09/11 13:12:38;;;;;;;;;;;;;;;27.28;31.82;101275.80;1715310;83;20255;-80